createdAt,value
2022-09-05T00:05:09.796Z,21.32
2022-09-05T00:10:51.944Z,21.19
2022-09-05T00:16:36.415Z,21.02
2022-09-05T00:24:35.901Z,20.99
2022-09-05T00:28:00.171Z,20.92
2022-09-05T00:33:31.899Z,20.88
2022-09-05T00:38:59.796Z,20.80
2022-09-05T00:44:25.935Z,20.77
2022-09-05T00:49:53.616Z,20.69
2022-09-05T00:55:23.084Z,20.62
2022-09-05T01:00:52.824Z,20.58
2022-09-05T01:06:30.908Z,20.56
2022-09-05T01:12:11.516Z,20.46
2022-09-05T01:17:44.708Z,20.42
2022-09-05T01:23:29.747Z,20.33
2022-09-05T01:29:16.373Z,20.23
2022-09-05T01:34:55.731Z,20.20
2022-09-05T01:40:25.217Z,20.17
2022-09-05T01:45:52.406Z,20.07
2022-09-05T01:51:29.137Z,20.10
2022-09-05T01:57:04.713Z,20.00
2022-09-05T02:02:50.706Z,19.91
2022-09-05T02:08:35.705Z,19.91
2022-09-05T02:14:01.543Z,19.87
2022-09-05T02:19:29.817Z,19.83
2022-09-05T02:24:58.486Z,19.87
2022-09-05T02:30:58.978Z,19.92
2022-09-05T02:36:36.014Z,19.97
2022-09-05T02:45:14.817Z,19.92
2022-09-05T02:47:50.445Z,19.87
2022-09-05T02:57:25.548Z,19.84
2022-09-05T02:59:10.516Z,19.78
2022-09-05T03:04:39.149Z,19.74
2022-09-05T03:10:17.876Z,19.60
2022-09-05T03:16:16.115Z,19.54
2022-09-05T03:22:24.174Z,19.54
2022-09-05T03:28:24.067Z,19.06
2022-09-05T03:34:14.335Z,19.30
2022-09-05T03:39:54.256Z,19.26
2022-09-05T03:45:37.359Z,19.36
2022-09-05T03:57:13.844Z,19.33
2022-09-05T03:57:33.833Z,19.32
2022-09-05T04:07:48.166Z,19.22
2022-09-05T04:08:58.285Z,19.17
2022-09-05T04:14:27.489Z,19.20
2022-09-05T04:19:55.274Z,19.11
2022-09-05T04:25:25.305Z,19.24
2022-09-05T04:30:50.388Z,19.17
2022-09-05T04:36:20.750Z,18.80
2022-09-05T04:41:47.183Z,19.13
2022-09-05T04:47:13.108Z,18.90
2022-09-05T04:52:55.815Z,18.93
2022-09-05T04:58:36.408Z,18.83
2022-09-05T05:06:16.279Z,18.82
2022-09-05T05:10:25.586Z,18.95
2022-09-05T05:18:14.992Z,18.95
2022-09-05T05:21:32.808Z,18.89
2022-09-05T05:27:02.803Z,18.89
2022-09-05T05:32:46.156Z,18.99
2022-09-05T05:38:24.679Z,19.00
2022-09-05T05:43:50.252Z,19.03
2022-09-05T05:49:37.734Z,19.04
2022-09-05T05:55:14.070Z,19.23
2022-09-05T06:01:27.388Z,19.34
2022-09-05T06:07:04.674Z,19.56
2022-09-05T06:15:01.922Z,19.54
2022-09-05T06:19:15.181Z,19.90
2022-09-05T06:25:20.431Z,20.06
2022-09-05T06:30:48.635Z,20.26
2022-09-05T06:36:44.359Z,20.51
2022-09-05T06:42:33.370Z,20.66
2022-09-05T06:48:06.206Z,20.78
2022-09-05T06:53:43.581Z,20.63
2022-09-05T06:59:43.866Z,21.44
2022-09-05T07:05:37.031Z,21.86
2022-09-05T07:11:11.450Z,22.23
2022-09-05T07:16:43.837Z,22.44
2022-09-05T07:22:47.925Z,22.89
2022-09-05T07:28:28.582Z,23.46
2022-09-05T07:34:21.505Z,23.60
2022-09-05T07:39:49.787Z,24.02
2022-09-05T07:45:18.435Z,24.38
2022-09-05T07:56:36.302Z,24.62
2022-09-05T07:57:08.834Z,25.08
2022-09-05T08:02:29.364Z,25.08
2022-09-05T08:07:55.835Z,25.14
2022-09-05T08:13:33.919Z,25.46
2022-09-05T08:19:06.316Z,25.65
2022-09-05T08:24:33.648Z,25.44
2022-09-05T08:30:25.636Z,25.50
2022-09-05T08:35:53.289Z,25.39
2022-09-05T08:41:44.704Z,25.90
2022-09-05T08:47:19.499Z,26.00
2022-09-05T08:52:53.727Z,26.71
2022-09-05T08:58:34.280Z,26.81
2022-09-05T09:04:14.115Z,26.86
2022-09-05T09:09:45.365Z,27.00
2022-09-05T09:15:15.002Z,27.21
2022-09-05T09:20:49.194Z,27.64
2022-09-05T09:26:17.072Z,27.80
2022-09-05T09:31:46.908Z,28.03
2022-09-05T09:37:50.701Z,28.04
2022-09-05T09:43:23.223Z,27.91
2022-09-05T09:49:02.939Z,27.96
2022-09-05T09:54:45.090Z,28.20
2022-09-05T10:00:17.574Z,28.71
2022-09-05T10:10:36.002Z,28.69
2022-09-05T10:12:02.208Z,29.07
2022-09-05T10:17:54.659Z,28.89
2022-09-05T10:23:50.935Z,29.17
2022-09-05T10:29:37.849Z,29.22
2022-09-05T10:35:22.136Z,29.57
2022-09-05T10:41:11.239Z,29.76
2022-09-05T10:46:57.053Z,29.73
2022-09-05T10:52:26.214Z,29.50
2022-09-05T10:58:01.903Z,29.99
2022-09-05T11:03:30.658Z,30.00
2022-09-05T11:09:14.378Z,29.81
2022-09-05T11:14:49.374Z,29.82
2022-09-05T11:20:35.547Z,29.70
2022-09-05T11:26:06.085Z,29.90
2022-09-05T11:32:40.062Z,29.54
2022-09-05T11:39:52.066Z,29.88
2022-09-05T11:44:25.222Z,29.85
2022-09-05T11:50:11.539Z,29.36
2022-09-05T11:55:46.347Z,29.53
2022-09-05T12:01:36.816Z,29.56
2022-09-05T12:07:30.147Z,29.67
2022-09-05T12:13:08.350Z,29.82
2022-09-05T12:18:42.010Z,29.97
2022-09-05T12:25:18.015Z,30.10
2022-09-05T12:29:59.987Z,30.33
2022-09-05T12:36:08.278Z,30.43
2022-09-05T12:41:43.500Z,30.13
2022-09-05T12:47:16.733Z,30.31
2022-09-05T12:52:46.854Z,29.99
2022-09-05T13:01:27.114Z,30.08
2022-09-05T13:04:18.116Z,30.03
2022-09-05T13:10:44.596Z,30.20
2022-09-05T13:15:36.203Z,30.27
2022-09-05T13:21:07.691Z,30.84
2022-09-05T13:26:38.941Z,30.90
2022-09-05T13:38:00.573Z,31.28
2022-09-05T13:43:45.805Z,31.62
2022-09-05T13:49:32.059Z,31.38
2022-09-05T13:55:04.719Z,31.29
2022-09-05T14:01:06.382Z,31.17
2022-09-05T14:06:48.779Z,31.07
2022-09-05T14:12:19.562Z,31.03
2022-09-05T14:18:20.147Z,31.24
2022-09-05T14:23:53.349Z,31.16
2022-09-05T14:29:19.872Z,30.80
2022-09-05T14:37:48.806Z,30.79
2022-09-05T14:41:15.202Z,31.10
2022-09-05T14:47:00.013Z,30.93
2022-09-05T14:52:28.513Z,30.50
2022-09-05T15:02:28.462Z,30.35
2022-09-05T15:12:14.752Z,30.27
2022-09-05T15:15:16.100Z,30.27
2022-09-05T15:20:41.785Z,30.20
2022-09-05T15:26:08.045Z,30.15
2022-09-05T15:31:31.342Z,30.27
2022-09-05T15:36:55.581Z,30.33
2022-09-05T15:42:35.254Z,30.37
2022-09-05T15:48:26.156Z,30.32
2022-09-05T15:53:52.400Z,29.89
2022-09-05T15:59:17.258Z,30.07
2022-09-05T16:08:19.686Z,29.92
2022-09-05T16:10:56.088Z,29.72
2022-09-05T16:23:18.191Z,29.52
2022-09-05T16:23:23.413Z,29.47
2022-09-05T16:27:51.503Z,29.32
2022-09-05T16:33:18.247Z,29.37
2022-09-05T16:38:48.846Z,29.23
2022-09-05T16:44:16.208Z,29.08
2022-09-05T16:49:44.979Z,28.83
2022-09-05T16:55:17.338Z,28.93
2022-09-05T17:00:53.972Z,28.84
2022-09-05T17:06:25.497Z,28.64
2022-09-05T17:12:00.627Z,28.78
2022-09-05T17:18:18.610Z,28.73
2022-09-05T17:29:19.904Z,28.68
2022-09-05T17:29:28.938Z,28.53
2022-09-05T17:35:17.764Z,28.43
2022-09-05T17:41:02.504Z,28.20
2022-09-05T17:46:28.783Z,28.05
2022-09-05T17:52:25.956Z,28.07
2022-09-05T17:57:50.829Z,27.81
2022-09-05T18:04:15.805Z,27.69
2022-09-05T18:09:58.798Z,27.51
2022-09-05T18:16:12.565Z,27.33
2022-09-05T18:21:48.200Z,27.21
2022-09-05T18:28:03.933Z,27.06
2022-09-05T18:33:55.542Z,27.01
2022-09-05T18:39:41.910Z,26.88
2022-09-05T18:45:14.521Z,26.70
2022-09-05T18:50:46.918Z,26.64
2022-09-05T18:56:20.172Z,26.52
2022-09-05T19:01:53.008Z,26.41
2022-09-05T19:07:22.378Z,26.27
2022-09-05T19:12:53.758Z,26.14
2022-09-05T19:18:37.075Z,26.07
2022-09-05T19:24:05.824Z,26.00
2022-09-05T19:35:29.380Z,25.79
2022-09-05T19:36:58.282Z,25.64
2022-09-05T19:47:29.783Z,25.68
2022-09-05T19:47:47.592Z,25.17
2022-09-05T19:52:33.059Z,23.91
2022-09-05T19:58:19.278Z,23.55
2022-09-05T20:03:44.972Z,23.16
2022-09-05T20:09:10.578Z,23.01
2022-09-05T20:14:36.812Z,22.93
2022-09-05T20:20:09.777Z,22.65
2022-09-05T20:25:39.672Z,22.57
2022-09-05T20:31:08.260Z,22.62
2022-09-05T20:41:53.849Z,22.42
2022-09-05T20:43:29.306Z,22.15
2022-09-05T20:54:04.266Z,22.31
2022-09-05T20:54:21.138Z,22.10
2022-09-05T20:59:38.448Z,21.79
2022-09-05T21:05:06.801Z,21.61
2022-09-05T21:10:56.004Z,21.65
2022-09-05T21:16:21.714Z,21.55
2022-09-05T21:21:46.368Z,21.26
2022-09-05T21:27:17.843Z,21.30
2022-09-05T21:32:41.950Z,21.42
2022-09-05T21:38:06.854Z,21.27
2022-09-05T21:47:39.415Z,21.37
2022-09-05T21:49:14.857Z,21.43
2022-09-05T21:59:18.343Z,21.61
2022-09-05T22:00:25.490Z,21.78
2022-09-05T22:05:49.483Z,21.91
2022-09-05T22:11:14.980Z,22.07
2022-09-05T22:16:44.734Z,22.21
2022-09-05T22:22:16.200Z,22.26
2022-09-05T22:27:44.875Z,22.26
2022-09-05T22:33:08.863Z,22.25
2022-09-05T22:38:33.278Z,22.26
2022-09-05T22:43:57.902Z,22.10
2022-09-05T22:49:21.154Z,22.18
2022-09-05T22:54:44.612Z,22.01
2022-09-05T23:00:11.390Z,21.86
2022-09-05T23:05:35.062Z,22.00
2022-09-05T23:10:58.465Z,22.05
2022-09-05T23:16:23.101Z,22.02
2022-09-05T23:21:46.467Z,21.78
2022-09-05T23:27:09.740Z,21.30
2022-09-05T23:32:34.527Z,20.93
2022-09-05T23:37:57.867Z,20.42
2022-09-05T23:43:21.099Z,20.54
2022-09-05T23:48:45.787Z,20.67
2022-09-05T23:54:08.916Z,20.46
2022-09-05T23:59:32.090Z,20.26
